High gust

Not for real navigation. The accuracy of this data is not assured See disclaimer for more information



ICAO NAME COUNTRY WIND Kt GUST Kt VIS m TEMP/DEW C BARO METAR
RJAW Iwojima Japan 34 56 1600 26/25 29.26 RJAW 181200Z 15034G56KT 1600 SHRA BR FEW005 BKN008 BKN010 FEW010CB 26/25 Q0991 RMK 2ST005 5ST008 7CU
PAUT 37 46 16000 10/8 29.60 PAUT 181215Z AUTO 02037G46KT 10SM -DZ OVC016 10/08 A2960 RMK AO2 T00950078
PAOU 34 44 11200 11/8 29.64 PAOU 181156Z AUTO 04034G44KT 7SM SCT065 BKN085 OVC100 11/08 A2964 RMK AO2 PK WND 05047/1110 SLP037 6
ENFL Floro Norway 26 43 9999 15/12 29.53 ENFL 181220Z 20026G43KT 9999 -SHRA FEW012 SCT018 BKN035 15/12 Q1000
PACD COLD BAY AIRPORT AK United States 32 42 16000 11/8 29.55 PACD 181153Z AUTO 03032G42KT 10SM BKN048 OVC070 11/08 A2955 RMK AO2 PK WND 03043/1132 SLP007 60000 7

Show more